sensor_id;sensor_type;location;lat;lon;timestamp;P1;durP1;ratioP1;P2;durP2;ratioP2
12756;SDS011;31601;48.042;12.240;2023-02-28T00:01:11;5.20;;;3.10;;
12756;SDS011;31601;48.042;12.240;2023-02-28T00:03:39;3.53;;;2.70;;
12756;SDS011;31601;48.042;12.240;2023-02-28T00:06:06;4.27;;;3.07;;
12756;SDS011;31601;48.042;12.240;2023-02-28T00:08:34;3.80;;;2.40;;
12756;SDS011;31601;48.042;12.240;2023-02-28T00:11:01;4.33;;;2.90;;
12756;SDS011;31601;48.042;12.240;2023-02-28T00:13:28;3.90;;;1.93;;
12756;SDS011;31601;48.042;12.240;2023-02-28T00:16:00;5.63;;;2.90;;
12756;SDS011;31601;48.042;12.240;2023-02-28T00:18:27;4.03;;;2.50;;
12756;SDS011;31601;48.042;12.240;2023-02-28T00:20:54;4.03;;;2.97;;
12756;SDS011;31601;48.042;12.240;2023-02-28T00:23:20;3.80;;;2.57;;
12756;SDS011;31601;48.042;12.240;2023-02-28T00:25:46;3.33;;;2.23;;
12756;SDS011;31601;48.042;12.240;2023-02-28T00:28:13;6.13;;;3.20;;
12756;SDS011;31601;48.042;12.240;2023-02-28T00:30:39;4.00;;;3.03;;
12756;SDS011;31601;48.042;12.240;2023-02-28T00:33:07;3.43;;;2.63;;
12756;SDS011;31601;48.042;12.240;2023-02-28T00:35:33;4.63;;;2.77;;
12756;SDS011;31601;48.042;12.240;2023-02-28T00:38:00;3.23;;;2.47;;
12756;SDS011;31601;48.042;12.240;2023-02-28T00:40:26;4.73;;;2.60;;
12756;SDS011;31601;48.042;12.240;2023-02-28T00:42:53;4.20;;;2.90;;
12756;SDS011;31601;48.042;12.240;2023-02-28T00:45:19;3.43;;;2.57;;
12756;SDS011;31601;48.042;12.240;2023-02-28T00:47:46;3.53;;;2.77;;
12756;SDS011;31601;48.042;12.240;2023-02-28T00:50:16;3.80;;;2.93;;
12756;SDS011;31601;48.042;12.240;2023-02-28T00:52:43;4.47;;;2.20;;
12756;SDS011;31601;48.042;12.240;2023-02-28T00:55:10;4.03;;;2.40;;
12756;SDS011;31601;48.042;12.240;2023-02-28T00:57:36;3.87;;;3.10;;
12756;SDS011;31601;48.042;12.240;2023-02-28T01:00:03;4.97;;;2.73;;
12756;SDS011;31601;48.042;12.240;2023-02-28T01:02:31;3.87;;;2.30;;
12756;SDS011;31601;48.042;12.240;2023-02-28T01:04:57;3.77;;;2.57;;
12756;SDS011;31601;48.042;12.240;2023-02-28T01:07:25;4.00;;;3.00;;
12756;SDS011;31601;48.042;12.240;2023-02-28T01:09:51;3.27;;;2.50;;
12756;SDS011;31601;48.042;12.240;2023-02-28T01:12:18;2.93;;;2.30;;
12756;SDS011;31601;48.042;12.240;2023-02-28T01:14:44;4.93;;;2.97;;
12756;SDS011;31601;48.042;12.240;2023-02-28T01:17:10;3.80;;;2.80;;
12756;SDS011;31601;48.042;12.240;2023-02-28T01:19:37;6.43;;;2.87;;
12756;SDS011;31601;48.042;12.240;2023-02-28T01:22:04;7.17;;;3.20;;
12756;SDS011;31601;48.042;12.240;2023-02-28T01:24:32;4.00;;;3.03;;
12756;SDS011;31601;48.042;12.240;2023-02-28T01:26:59;3.60;;;3.17;;
12756;SDS011;31601;48.042;12.240;2023-02-28T01:29:25;4.57;;;3.27;;
12756;SDS011;31601;48.042;12.240;2023-02-28T01:31:52;4.40;;;3.50;;
12756;SDS011;31601;48.042;12.240;2023-02-28T01:34:18;5.50;;;3.37;;
12756;SDS011;31601;48.042;12.240;2023-02-28T01:36:45;4.47;;;3.43;;
12756;SDS011;31601;48.042;12.240;2023-02-28T01:39:11;5.40;;;3.73;;
12756;SDS011;31601;48.042;12.240;2023-02-28T01:41:40;4.53;;;3.30;;
12756;SDS011;31601;48.042;12.240;2023-02-28T01:44:07;5.43;;;3.70;;
12756;SDS011;31601;48.042;12.240;2023-02-28T01:46:53;5.70;;;3.70;;
12756;SDS011;31601;48.042;12.240;2023-02-28T01:49:20;7.67;;;3.33;;
12756;SDS011;31601;48.042;12.240;2023-02-28T01:51:47;5.67;;;3.50;;
12756;SDS011;31601;48.042;12.240;2023-02-28T01:54:17;4.27;;;3.23;;
12756;SDS011;31601;48.042;12.240;2023-02-28T01:56:50;5.30;;;3.57;;
12756;SDS011;31601;48.042;12.240;2023-02-28T01:59:21;8.17;;;3.93;;
12756;SDS011;31601;48.042;12.240;2023-02-28T02:01:50;7.27;;;3.97;;
12756;SDS011;31601;48.042;12.240;2023-02-28T02:04:16;5.27;;;4.47;;
12756;SDS011;31601;48.042;12.240;2023-02-28T02:06:44;5.90;;;4.57;;
12756;SDS011;31601;48.042;12.240;2023-02-28T02:09:13;9.30;;;4.30;;
12756;SDS011;31601;48.042;12.240;2023-02-28T02:11:41;6.10;;;4.50;;
12756;SDS011;31601;48.042;12.240;2023-02-28T02:14:16;6.50;;;4.23;;
12756;SDS011;31601;48.042;12.240;2023-02-28T02:16:58;7.50;;;4.60;;
12756;SDS011;31601;48.042;12.240;2023-02-28T02:19:49;6.40;;;4.80;;
12756;SDS011;31601;48.042;12.240;2023-02-28T02:22:43;7.13;;;4.83;;
12756;SDS011;31601;48.042;12.240;2023-02-28T02:25:34;6.30;;;4.40;;
12756;SDS011;31601;48.042;12.240;2023-02-28T02:28:23;9.30;;;4.43;;
12756;SDS011;31601;48.042;12.240;2023-02-28T02:31:09;8.60;;;5.27;;
12756;SDS011;31601;48.042;12.240;2023-02-28T02:36:50;7.70;;;4.97;;
12756;SDS011;31601;48.042;12.240;2023-02-28T02:39:23;7.23;;;4.73;;
12756;SDS011;31601;48.042;12.240;2023-02-28T02:41:58;6.23;;;4.90;;
12756;SDS011;31601;48.042;12.240;2023-02-28T02:44:27;7.27;;;4.80;;
12756;SDS011;31601;48.042;12.240;2023-02-28T02:46:58;7.33;;;5.13;;
12756;SDS011;31601;48.042;12.240;2023-02-28T02:49:31;9.43;;;6.10;;
12756;SDS011;31601;48.042;12.240;2023-02-28T02:52:00;7.30;;;5.37;;
12756;SDS011;31601;48.042;12.240;2023-02-28T02:54:30;9.27;;;6.20;;
12756;SDS011;31601;48.042;12.240;2023-02-28T02:57:06;8.60;;;5.47;;
12756;SDS011;31601;48.042;12.240;2023-02-28T02:59:35;11.77;;;7.00;;
12756;SDS011;31601;48.042;12.240;2023-02-28T03:02:06;9.83;;;6.17;;
12756;SDS011;31601;48.042;12.240;2023-02-28T03:04:38;7.57;;;6.07;;
12756;SDS011;31601;48.042;12.240;2023-02-28T03:07:09;8.37;;;6.20;;
12756;SDS011;31601;48.042;12.240;2023-02-28T03:09:35;8.50;;;6.00;;
12756;SDS011;31601;48.042;12.240;2023-02-28T03:12:02;8.77;;;6.50;;
12756;SDS011;31601;48.042;12.240;2023-02-28T03:14:35;13.27;;;7.50;;
12756;SDS011;31601;48.042;12.240;2023-02-28T03:17:21;11.23;;;8.27;;
12756;SDS011;31601;48.042;12.240;2023-02-28T03:20:01;10.60;;;7.70;;
12756;SDS011;31601;48.042;12.240;2023-02-28T03:22:42;11.27;;;7.17;;
12756;SDS011;31601;48.042;12.240;2023-02-28T03:25:17;11.40;;;7.83;;
12756;SDS011;31601;48.042;12.240;2023-02-28T03:27:54;12.30;;;8.17;;
12756;SDS011;31601;48.042;12.240;2023-02-28T03:30:26;11.57;;;8.67;;
12756;SDS011;31601;48.042;12.240;2023-02-28T03:33:00;14.17;;;8.73;;
12756;SDS011;31601;48.042;12.240;2023-02-28T03:35:35;12.50;;;8.80;;
12756;SDS011;31601;48.042;12.240;2023-02-28T03:38:05;10.90;;;8.23;;
12756;SDS011;31601;48.042;12.240;2023-02-28T03:40:38;11.77;;;8.73;;
12756;SDS011;31601;48.042;12.240;2023-02-28T03:43:09;13.97;;;9.20;;
12756;SDS011;31601;48.042;12.240;2023-02-28T03:45:41;13.97;;;9.50;;
12756;SDS011;31601;48.042;12.240;2023-02-28T03:48:12;12.20;;;8.03;;
12756;SDS011;31601;48.042;12.240;2023-02-28T03:50:44;17.67;;;10.53;;
12756;SDS011;31601;48.042;12.240;2023-02-28T03:53:13;16.93;;;11.20;;
12756;SDS011;31601;48.042;12.240;2023-02-28T03:55:44;17.43;;;10.87;;
12756;SDS011;31601;48.042;12.240;2023-02-28T03:58:14;17.67;;;10.10;;
12756;SDS011;31601;48.042;12.240;2023-02-28T04:00:46;16.47;;;9.53;;
12756;SDS011;31601;48.042;12.240;2023-02-28T04:03:16;12.43;;;8.73;;
12756;SDS011;31601;48.042;12.240;2023-02-28T04:05:49;14.23;;;8.97;;
12756;SDS011;31601;48.042;12.240;2023-02-28T04:08:17;13.20;;;9.40;;
12756;SDS011;31601;48.042;12.240;2023-02-28T04:10:44;16.37;;;10.33;;
12756;SDS011;31601;48.042;12.240;2023-02-28T04:13:15;13.30;;;9.10;;
12756;SDS011;31601;48.042;12.240;2023-02-28T04:15:42;13.83;;;9.37;;
12756;SDS011;31601;48.042;12.240;2023-02-28T04:18:08;14.47;;;8.53;;
12756;SDS011;31601;48.042;12.240;2023-02-28T04:20:34;13.57;;;9.37;;
12756;SDS011;31601;48.042;12.240;2023-02-28T04:23:02;14.97;;;9.57;;
12756;SDS011;31601;48.042;12.240;2023-02-28T04:25:29;15.20;;;9.87;;
12756;SDS011;31601;48.042;12.240;2023-02-28T04:27:55;14.13;;;9.13;;
12756;SDS011;31601;48.042;12.240;2023-02-28T04:30:21;14.70;;;9.00;;
12756;SDS011;31601;48.042;12.240;2023-02-28T04:32:48;14.27;;;9.43;;
12756;SDS011;31601;48.042;12.240;2023-02-28T04:35:14;16.83;;;10.57;;
12756;SDS011;31601;48.042;12.240;2023-02-28T04:37:41;17.53;;;9.60;;
12756;SDS011;31601;48.042;12.240;2023-02-28T04:40:10;13.27;;;9.57;;
12756;SDS011;31601;48.042;12.240;2023-02-28T04:42:36;12.40;;;8.97;;
12756;SDS011;31601;48.042;12.240;2023-02-28T04:45:03;14.13;;;9.73;;
12756;SDS011;31601;48.042;12.240;2023-02-28T04:47:30;14.27;;;9.87;;
12756;SDS011;31601;48.042;12.240;2023-02-28T04:49:57;14.43;;;9.97;;
12756;SDS011;31601;48.042;12.240;2023-02-28T04:52:23;14.53;;;9.87;;
12756;SDS011;31601;48.042;12.240;2023-02-28T04:54:50;13.17;;;9.30;;
12756;SDS011;31601;48.042;12.240;2023-02-28T04:57:17;13.00;;;8.83;;
12756;SDS011;31601;48.042;12.240;2023-02-28T04:59:44;13.67;;;8.40;;
12756;SDS011;31601;48.042;12.240;2023-02-28T05:02:10;14.60;;;9.93;;
12756;SDS011;31601;48.042;12.240;2023-02-28T05:04:36;17.33;;;10.10;;
12756;SDS011;31601;48.042;12.240;2023-02-28T05:07:03;11.60;;;8.33;;
12756;SDS011;31601;48.042;12.240;2023-02-28T05:09:29;14.27;;;9.87;;
12756;SDS011;31601;48.042;12.240;2023-02-28T05:11:57;14.13;;;9.87;;
12756;SDS011;31601;48.042;12.240;2023-02-28T05:14:25;15.80;;;10.20;;
12756;SDS011;31601;48.042;12.240;2023-02-28T05:16:52;13.70;;;9.33;;
12756;SDS011;31601;48.042;12.240;2023-02-28T05:19:18;15.40;;;10.13;;
12756;SDS011;31601;48.042;12.240;2023-02-28T05:21:49;13.27;;;8.93;;
12756;SDS011;31601;48.042;12.240;2023-02-28T05:24:18;13.67;;;9.73;;
12756;SDS011;31601;48.042;12.240;2023-02-28T05:26:47;16.57;;;11.00;;
12756;SDS011;31601;48.042;12.240;2023-02-28T05:29:15;17.10;;;10.67;;
12756;SDS011;31601;48.042;12.240;2023-02-28T05:31:43;17.30;;;11.93;;
12756;SDS011;31601;48.042;12.240;2023-02-28T05:34:09;13.00;;;9.60;;
12756;SDS011;31601;48.042;12.240;2023-02-28T05:36:37;19.00;;;10.27;;
12756;SDS011;31601;48.042;12.240;2023-02-28T05:39:04;14.70;;;10.97;;
12756;SDS011;31601;48.042;12.240;2023-02-28T05:41:32;17.20;;;11.13;;
12756;SDS011;31601;48.042;12.240;2023-02-28T05:43:58;20.27;;;12.60;;
12756;SDS011;31601;48.042;12.240;2023-02-28T05:46:26;21.67;;;14.00;;
12756;SDS011;31601;48.042;12.240;2023-02-28T05:48:54;14.70;;;10.67;;
12756;SDS011;31601;48.042;12.240;2023-02-28T05:51:20;15.73;;;11.07;;
12756;SDS011;31601;48.042;12.240;2023-02-28T05:53:47;20.60;;;12.27;;
12756;SDS011;31601;48.042;12.240;2023-02-28T05:56:14;18.23;;;12.30;;
12756;SDS011;31601;48.042;12.240;2023-02-28T05:58:41;16.70;;;11.60;;
12756;SDS011;31601;48.042;12.240;2023-02-28T06:01:20;18.03;;;11.70;;
12756;SDS011;31601;48.042;12.240;2023-02-28T06:03:49;17.30;;;11.80;;
12756;SDS011;31601;48.042;12.240;2023-02-28T06:06:17;21.90;;;13.07;;
12756;SDS011;31601;48.042;12.240;2023-02-28T06:08:43;19.80;;;12.57;;
12756;SDS011;31601;48.042;12.240;2023-02-28T06:11:10;23.07;;;13.80;;
12756;SDS011;31601;48.042;12.240;2023-02-28T06:13:37;19.93;;;13.13;;
12756;SDS011;31601;48.042;12.240;2023-02-28T06:16:03;17.70;;;12.20;;
12756;SDS011;31601;48.042;12.240;2023-02-28T06:18:30;19.63;;;13.37;;
12756;SDS011;31601;48.042;12.240;2023-02-28T06:20:56;17.63;;;12.50;;
12756;SDS011;31601;48.042;12.240;2023-02-28T06:23:24;17.10;;;12.40;;
12756;SDS011;31601;48.042;12.240;2023-02-28T06:25:51;16.97;;;11.13;;
12756;SDS011;31601;48.042;12.240;2023-02-28T06:28:18;21.17;;;13.93;;
12756;SDS011;31601;48.042;12.240;2023-02-28T06:30:44;19.50;;;11.97;;
12756;SDS011;31601;48.042;12.240;2023-02-28T06:33:10;18.80;;;12.37;;
12756;SDS011;31601;48.042;12.240;2023-02-28T06:35:37;17.70;;;12.97;;
12756;SDS011;31601;48.042;12.240;2023-02-28T06:38:03;18.00;;;13.03;;
12756;SDS011;31601;48.042;12.240;2023-02-28T06:40:31;19.90;;;12.73;;
12756;SDS011;31601;48.042;12.240;2023-02-28T06:43:00;16.97;;;12.23;;
12756;SDS011;31601;48.042;12.240;2023-02-28T06:45:26;17.67;;;12.50;;
12756;SDS011;31601;48.042;12.240;2023-02-28T06:47:52;17.90;;;12.63;;
12756;SDS011;31601;48.042;12.240;2023-02-28T06:50:19;19.93;;;13.07;;
12756;SDS011;31601;48.042;12.240;2023-02-28T06:52:45;41.73;;;21.43;;
12756;SDS011;31601;48.042;12.240;2023-02-28T06:55:12;29.03;;;17.77;;
12756;SDS011;31601;48.042;12.240;2023-02-28T06:57:40;21.03;;;13.97;;
12756;SDS011;31601;48.042;12.240;2023-02-28T07:00:07;17.80;;;11.57;;
12756;SDS011;31601;48.042;12.240;2023-02-28T07:02:35;16.47;;;9.53;;
12756;SDS011;31601;48.042;12.240;2023-02-28T07:05:02;18.63;;;11.73;;
12756;SDS011;31601;48.042;12.240;2023-02-28T07:07:29;15.03;;;10.03;;
12756;SDS011;31601;48.042;12.240;2023-02-28T07:09:57;34.50;;;19.77;;
12756;SDS011;31601;48.042;12.240;2023-02-28T07:12:23;18.87;;;11.67;;
12756;SDS011;31601;48.042;12.240;2023-02-28T07:14:51;21.87;;;11.80;;
12756;SDS011;31601;48.042;12.240;2023-02-28T07:17:19;17.37;;;12.60;;
12756;SDS011;31601;48.042;12.240;2023-02-28T07:19:45;17.07;;;10.63;;
12756;SDS011;31601;48.042;12.240;2023-02-28T07:22:12;21.70;;;9.70;;
12756;SDS011;31601;48.042;12.240;2023-02-28T07:24:38;31.07;;;17.27;;
12756;SDS011;31601;48.042;12.240;2023-02-28T07:27:04;34.80;;;20.10;;
12756;SDS011;31601;48.042;12.240;2023-02-28T07:29:31;31.53;;;18.80;;
12756;SDS011;31601;48.042;12.240;2023-02-28T07:31:59;28.40;;;16.93;;
12756;SDS011;31601;48.042;12.240;2023-02-28T07:34:25;20.93;;;11.97;;
12756;SDS011;31601;48.042;12.240;2023-02-28T07:36:52;20.27;;;12.00;;
12756;SDS011;31601;48.042;12.240;2023-02-28T07:39:19;27.50;;;12.10;;
12756;SDS011;31601;48.042;12.240;2023-02-28T07:41:46;23.07;;;11.97;;
12756;SDS011;31601;48.042;12.240;2023-02-28T07:44:13;16.77;;;12.80;;
12756;SDS011;31601;48.042;12.240;2023-02-28T07:46:39;19.83;;;11.67;;
12756;SDS011;31601;48.042;12.240;2023-02-28T07:49:07;18.30;;;11.77;;
12756;SDS011;31601;48.042;12.240;2023-02-28T07:51:33;13.20;;;8.40;;
12756;SDS011;31601;48.042;12.240;2023-02-28T07:54:00;29.87;;;12.83;;
12756;SDS011;31601;48.042;12.240;2023-02-28T07:56:26;22.13;;;14.37;;
12756;SDS011;31601;48.042;12.240;2023-02-28T07:58:53;22.47;;;13.67;;
12756;SDS011;31601;48.042;12.240;2023-02-28T08:01:19;29.60;;;12.50;;
12756;SDS011;31601;48.042;12.240;2023-02-28T08:03:45;20.80;;;13.03;;
12756;SDS011;31601;48.042;12.240;2023-02-28T08:06:16;41.10;;;13.30;;
12756;SDS011;31601;48.042;12.240;2023-02-28T08:08:45;39.60;;;13.97;;
12756;SDS011;31601;48.042;12.240;2023-02-28T08:11:11;75.30;;;15.17;;
12756;SDS011;31601;48.042;12.240;2023-02-28T08:13:37;26.20;;;12.73;;
12756;SDS011;31601;48.042;12.240;2023-02-28T08:16:04;43.43;;;14.83;;
12756;SDS011;31601;48.042;12.240;2023-02-28T08:18:31;16.03;;;11.07;;
12756;SDS011;31601;48.042;12.240;2023-02-28T08:20:58;26.27;;;11.63;;
12756;SDS011;31601;48.042;12.240;2023-02-28T08:23:26;33.43;;;11.77;;
12756;SDS011;31601;48.042;12.240;2023-02-28T08:25:53;32.90;;;11.50;;
12756;SDS011;31601;48.042;12.240;2023-02-28T08:28:20;87.53;;;18.50;;
12756;SDS011;31601;48.042;12.240;2023-02-28T08:30:46;93.63;;;18.97;;
12756;SDS011;31601;48.042;12.240;2023-02-28T08:33:13;27.57;;;13.43;;
12756;SDS011;31601;48.042;12.240;2023-02-28T08:35:40;23.17;;;14.77;;
12756;SDS011;31601;48.042;12.240;2023-02-28T08:38:06;53.37;;;18.23;;
12756;SDS011;31601;48.042;12.240;2023-02-28T08:40:34;17.53;;;10.87;;
12756;SDS011;31601;48.042;12.240;2023-02-28T08:43:00;19.57;;;12.40;;
12756;SDS011;31601;48.042;12.240;2023-02-28T08:45:27;23.57;;;11.17;;
12756;SDS011;31601;48.042;12.240;2023-02-28T08:47:53;49.30;;;13.03;;
12756;SDS011;31601;48.042;12.240;2023-02-28T08:50:20;15.97;;;11.23;;
12756;SDS011;31601;48.042;12.240;2023-02-28T08:52:46;13.30;;;9.77;;
12756;SDS011;31601;48.042;12.240;2023-02-28T08:55:13;19.03;;;11.13;;
12756;SDS011;31601;48.042;12.240;2023-02-28T08:57:40;22.00;;;11.43;;
12756;SDS011;31601;48.042;12.240;2023-02-28T09:00:07;25.77;;;12.53;;
12756;SDS011;31601;48.042;12.240;2023-02-28T09:02:38;14.70;;;10.17;;
12756;SDS011;31601;48.042;12.240;2023-02-28T09:05:05;81.93;;;18.27;;
12756;SDS011;31601;48.042;12.240;2023-02-28T09:07:32;14.47;;;10.67;;
12756;SDS011;31601;48.042;12.240;2023-02-28T09:09:58;19.13;;;11.70;;
12756;SDS011;31601;48.042;12.240;2023-02-28T09:12:26;18.77;;;11.33;;
12756;SDS011;31601;48.042;12.240;2023-02-28T09:14:55;14.27;;;11.33;;
12756;SDS011;31601;48.042;12.240;2023-02-28T09:17:21;29.60;;;13.90;;
12756;SDS011;31601;48.042;12.240;2023-02-28T09:19:48;21.00;;;12.17;;
12756;SDS011;31601;48.042;12.240;2023-02-28T09:22:15;16.67;;;12.03;;
12756;SDS011;31601;48.042;12.240;2023-02-28T09:24:42;26.07;;;11.97;;
12756;SDS011;31601;48.042;12.240;2023-02-28T09:27:09;17.37;;;11.60;;
12756;SDS011;31601;48.042;12.240;2023-02-28T09:29:36;80.97;;;15.10;;
12756;SDS011;31601;48.042;12.240;2023-02-28T09:32:04;46.60;;;15.03;;
12756;SDS011;31601;48.042;12.240;2023-02-28T09:34:31;13.73;;;10.73;;
12756;SDS011;31601;48.042;12.240;2023-02-28T09:36:58;40.80;;;15.43;;
12756;SDS011;31601;48.042;12.240;2023-02-28T09:39:24;30.57;;;12.80;;
12756;SDS011;31601;48.042;12.240;2023-02-28T09:41:52;24.73;;;13.00;;
12756;SDS011;31601;48.042;12.240;2023-02-28T09:44:22;15.80;;;12.20;;
12756;SDS011;31601;48.042;12.240;2023-02-28T09:46:53;52.53;;;15.03;;
12756;SDS011;31601;48.042;12.240;2023-02-28T09:49:28;25.00;;;14.47;;
12756;SDS011;31601;48.042;12.240;2023-02-28T09:51:59;22.10;;;13.20;;
12756;SDS011;31601;48.042;12.240;2023-02-28T09:54:30;21.40;;;12.07;;
12756;SDS011;31601;48.042;12.240;2023-02-28T09:56:59;15.70;;;10.50;;
12756;SDS011;31601;48.042;12.240;2023-02-28T09:59:39;20.33;;;11.63;;
12756;SDS011;31601;48.042;12.240;2023-02-28T10:02:21;38.40;;;19.27;;
12756;SDS011;31601;48.042;12.240;2023-02-28T10:05:06;15.83;;;11.27;;
12756;SDS011;31601;48.042;12.240;2023-02-28T10:07:41;32.27;;;13.40;;
12756;SDS011;31601;48.042;12.240;2023-02-28T10:10:27;30.57;;;15.83;;
12756;SDS011;31601;48.042;12.240;2023-02-28T10:12:57;38.27;;;18.53;;
12756;SDS011;31601;48.042;12.240;2023-02-28T10:15:27;60.70;;;18.90;;
12756;SDS011;31601;48.042;12.240;2023-02-28T10:17:58;30.37;;;13.90;;
12756;SDS011;31601;48.042;12.240;2023-02-28T10:20:28;26.43;;;14.77;;
12756;SDS011;31601;48.042;12.240;2023-02-28T10:23:01;23.33;;;13.10;;
12756;SDS011;31601;48.042;12.240;2023-02-28T10:25:33;27.80;;;13.80;;
12756;SDS011;31601;48.042;12.240;2023-02-28T10:28:04;37.43;;;16.07;;
12756;SDS011;31601;48.042;12.240;2023-02-28T10:30:36;30.20;;;15.80;;
12756;SDS011;31601;48.042;12.240;2023-02-28T10:33:08;27.30;;;15.73;;
12756;SDS011;31601;48.042;12.240;2023-02-28T10:35:46;16.50;;;11.90;;
12756;SDS011;31601;48.042;12.240;2023-02-28T10:38:14;18.30;;;10.73;;
12756;SDS011;31601;48.042;12.240;2023-02-28T10:40:43;17.10;;;11.90;;
12756;SDS011;31601;48.042;12.240;2023-02-28T10:43:17;18.10;;;11.23;;
12756;SDS011;31601;48.042;12.240;2023-02-28T10:45:53;18.07;;;11.37;;
12756;SDS011;31601;48.042;12.240;2023-02-28T10:48:33;19.57;;;12.93;;
12756;SDS011;31601;48.042;12.240;2023-02-28T10:51:03;23.93;;;12.00;;
12756;SDS011;31601;48.042;12.240;2023-02-28T10:53:32;18.37;;;11.23;;
12756;SDS011;31601;48.042;12.240;2023-02-28T10:56:02;24.63;;;11.80;;
12756;SDS011;31601;48.042;12.240;2023-02-28T10:58:32;15.87;;;10.63;;
12756;SDS011;31601;48.042;12.240;2023-02-28T11:01:13;20.47;;;11.83;;
12756;SDS011;31601;48.042;12.240;2023-02-28T11:03:41;40.47;;;13.67;;
12756;SDS011;31601;48.042;12.240;2023-02-28T11:06:13;15.10;;;10.03;;
12756;SDS011;31601;48.042;12.240;2023-02-28T11:08:43;17.33;;;10.20;;
12756;SDS011;31601;48.042;12.240;2023-02-28T11:11:12;16.07;;;10.67;;
12756;SDS011;31601;48.042;12.240;2023-02-28T11:13:39;17.00;;;11.73;;
12756;SDS011;31601;48.042;12.240;2023-02-28T11:16:07;13.07;;;9.87;;
12756;SDS011;31601;48.042;12.240;2023-02-28T11:18:38;14.03;;;10.57;;
12756;SDS011;31601;48.042;12.240;2023-02-28T11:21:09;16.57;;;11.03;;
12756;SDS011;31601;48.042;12.240;2023-02-28T11:23:42;19.20;;;11.33;;
12756;SDS011;31601;48.042;12.240;2023-02-28T11:26:10;18.30;;;11.33;;
12756;SDS011;31601;48.042;12.240;2023-02-28T11:28:37;14.33;;;11.10;;
12756;SDS011;31601;48.042;12.240;2023-02-28T11:31:13;37.20;;;13.53;;
12756;SDS011;31601;48.042;12.240;2023-02-28T11:33:44;18.97;;;12.17;;
12756;SDS011;31601;48.042;12.240;2023-02-28T11:36:16;21.57;;;12.27;;
12756;SDS011;31601;48.042;12.240;2023-02-28T11:38:45;15.93;;;10.73;;
12756;SDS011;31601;48.042;12.240;2023-02-28T11:41:16;18.37;;;11.47;;
12756;SDS011;31601;48.042;12.240;2023-02-28T11:43:54;18.27;;;11.80;;
12756;SDS011;31601;48.042;12.240;2023-02-28T11:46:29;20.17;;;11.70;;
12756;SDS011;31601;48.042;12.240;2023-02-28T11:49:02;20.27;;;12.50;;
12756;SDS011;31601;48.042;12.240;2023-02-28T11:51:41;17.83;;;11.77;;
12756;SDS011;31601;48.042;12.240;2023-02-28T11:54:35;31.60;;;12.97;;
12756;SDS011;31601;48.042;12.240;2023-02-28T11:57:28;33.27;;;12.87;;
12756;SDS011;31601;48.042;12.240;2023-02-28T12:00:03;26.53;;;12.00;;
12756;SDS011;31601;48.042;12.240;2023-02-28T12:02:49;19.47;;;13.03;;
12756;SDS011;31601;48.042;12.240;2023-02-28T12:05:27;23.00;;;12.50;;
12756;SDS011;31601;48.042;12.240;2023-02-28T12:08:03;24.30;;;11.20;;
12756;SDS011;31601;48.042;12.240;2023-02-28T12:10:43;15.13;;;10.20;;
12756;SDS011;31601;48.042;12.240;2023-02-28T12:13:26;16.47;;;11.17;;
12756;SDS011;31601;48.042;12.240;2023-02-28T12:16:04;27.93;;;12.67;;
12756;SDS011;31601;48.042;12.240;2023-02-28T12:18:55;16.57;;;11.53;;
12756;SDS011;31601;48.042;12.240;2023-02-28T12:21:31;17.80;;;13.77;;
12756;SDS011;31601;48.042;12.240;2023-02-28T12:27:11;26.20;;;11.27;;
12756;SDS011;31601;48.042;12.240;2023-02-28T12:29:43;20.53;;;10.47;;
12756;SDS011;31601;48.042;12.240;2023-02-28T12:32:15;14.90;;;10.60;;
12756;SDS011;31601;48.042;12.240;2023-02-28T12:34:46;18.17;;;10.63;;
12756;SDS011;31601;48.042;12.240;2023-02-28T12:37:15;40.17;;;12.00;;
12756;SDS011;31601;48.042;12.240;2023-02-28T12:39:48;17.33;;;10.47;;
12756;SDS011;31601;48.042;12.240;2023-02-28T12:42:19;26.00;;;11.90;;
12756;SDS011;31601;48.042;12.240;2023-02-28T12:44:52;19.03;;;10.67;;
12756;SDS011;31601;48.042;12.240;2023-02-28T12:47:22;18.07;;;10.53;;
12756;SDS011;31601;48.042;12.240;2023-02-28T12:49:49;15.40;;;10.40;;
12756;SDS011;31601;48.042;12.240;2023-02-28T12:52:20;16.90;;;10.67;;
12756;SDS011;31601;48.042;12.240;2023-02-28T12:54:53;24.43;;;10.27;;
12756;SDS011;31601;48.042;12.240;2023-02-28T12:57:27;36.50;;;11.87;;
12756;SDS011;31601;48.042;12.240;2023-02-28T13:00:03;13.73;;;10.53;;
12756;SDS011;31601;48.042;12.240;2023-02-28T13:02:44;15.63;;;9.57;;
12756;SDS011;31601;48.042;12.240;2023-02-28T13:08:56;27.13;;;11.07;;
12756;SDS011;31601;48.042;12.240;2023-02-28T13:11:29;26.27;;;11.57;;
12756;SDS011;31601;48.042;12.240;2023-02-28T13:13:58;15.77;;;10.00;;
12756;SDS011;31601;48.042;12.240;2023-02-28T13:16:26;15.37;;;10.63;;
12756;SDS011;31601;48.042;12.240;2023-02-28T13:18:52;20.50;;;11.30;;
12756;SDS011;31601;48.042;12.240;2023-02-28T13:21:41;14.40;;;10.80;;
12756;SDS011;31601;48.042;12.240;2023-02-28T13:24:09;20.67;;;11.00;;
12756;SDS011;31601;48.042;12.240;2023-02-28T13:29:49;14.47;;;10.93;;
12756;SDS011;31601;48.042;12.240;2023-02-28T13:32:28;18.93;;;10.40;;
12756;SDS011;31601;48.042;12.240;2023-02-28T13:38:17;14.07;;;9.83;;
12756;SDS011;31601;48.042;12.240;2023-02-28T13:40:49;47.33;;;14.87;;
12756;SDS011;31601;48.042;12.240;2023-02-28T13:43:17;20.00;;;10.93;;
12756;SDS011;31601;48.042;12.240;2023-02-28T13:48:37;18.20;;;10.90;;
12756;SDS011;31601;48.042;12.240;2023-02-28T13:53:56;17.90;;;9.90;;
12756;SDS011;31601;48.042;12.240;2023-02-28T13:56:35;16.33;;;10.13;;
12756;SDS011;31601;48.042;12.240;2023-02-28T13:59:16;14.27;;;10.20;;
12756;SDS011;31601;48.042;12.240;2023-02-28T14:01:58;14.10;;;11.17;;
12756;SDS011;31601;48.042;12.240;2023-02-28T14:04:46;13.50;;;10.67;;
12756;SDS011;31601;48.042;12.240;2023-02-28T14:07:20;18.03;;;11.37;;
12756;SDS011;31601;48.042;12.240;2023-02-28T14:09:51;24.43;;;10.10;;
12756;SDS011;31601;48.042;12.240;2023-02-28T14:15:28;31.63;;;17.13;;
12756;SDS011;31601;48.042;12.240;2023-02-28T14:18:05;17.47;;;11.10;;
12756;SDS011;31601;48.042;12.240;2023-02-28T14:20:41;15.40;;;11.43;;
12756;SDS011;31601;48.042;12.240;2023-02-28T14:23:10;64.53;;;38.70;;
12756;SDS011;31601;48.042;12.240;2023-02-28T14:25:45;21.13;;;15.40;;
12756;SDS011;31601;48.042;12.240;2023-02-28T14:28:28;57.10;;;22.27;;
12756;SDS011;31601;48.042;12.240;2023-02-28T14:31:13;20.63;;;12.50;;
12756;SDS011;31601;48.042;12.240;2023-02-28T14:33:48;50.40;;;13.73;;
12756;SDS011;31601;48.042;12.240;2023-02-28T14:36:30;19.90;;;10.63;;
12756;SDS011;31601;48.042;12.240;2023-02-28T14:38:59;12.63;;;9.97;;
12756;SDS011;31601;48.042;12.240;2023-02-28T14:41:31;16.33;;;11.57;;
12756;SDS011;31601;48.042;12.240;2023-02-28T14:44:00;23.37;;;14.00;;
12756;SDS011;31601;48.042;12.240;2023-02-28T14:46:33;21.80;;;10.90;;
12756;SDS011;31601;48.042;12.240;2023-02-28T14:49:03;29.03;;;12.93;;
12756;SDS011;31601;48.042;12.240;2023-02-28T14:51:30;21.40;;;12.00;;
12756;SDS011;31601;48.042;12.240;2023-02-28T14:53:58;21.20;;;13.87;;
12756;SDS011;31601;48.042;12.240;2023-02-28T14:56:27;20.70;;;11.80;;
12756;SDS011;31601;48.042;12.240;2023-02-28T14:58:58;19.17;;;12.43;;